Celebrity Century — 9HJI9 — position and weather

sailwx.info

Track history (hours):
 
Tides and Currents Weather Stations Pressure Air Temp Water Temp Dewpoint Dewpoint Depression Visibility Wind Speed Wind Dir Waves Ship Positions

Celebrity Century

Last reported at 2014-Aug-25 14:03 UTC. Time now 2014-Aug-27 15:09 UTC.
Position N 51°09' W 128°05'.

Length 250 m; draft 8.1 m.

Type: Ship. MMSI: 249054000.

Date/timePositionNaut miles runAvg speedWind from/ knotsBaromVisibWave heightAir tempDewpointWater temp
2014-Aug-25 14:03N 51°09' W 128°05'815.4
2014-Aug-25 13:34N 51°04' W 127°55'1514.5
2014-Aug-25 12:33N 50°54' W 127°38'1919.3
2014-Aug-25 11:34N 50°45' W 127°11'1818.2
2014-Aug-25 10:33N 50°37' W 126°45'1514.5
2014-Aug-25 09:32N 50°30' W 126°25'7414.6
2014-Aug-25 04:27N 49°46' W 124°52'1415.3
2014-Aug-25 03:33N 49°36' W 124°38'1616.2
2014-Aug-25 02:33N 49°26' W 124°19'1616.5
2014-Aug-25 01:33N 49°20' W 123°55'1616.0
2014-Aug-25 00:34N 49°19' W 123°30'1514.9
2014-Aug-24 23:34N 49°19' W 123°08'1 1.4
2014-Aug-24 22:33N 49°17' W 123°06'0 0.0
2014-Aug-24 21:33N 49°17' W 123°06'0 0.0
2014-Aug-24 20:32N 49°17' W 123°06'0 0.0
2014-Aug-24 19:32N 49°17' W 123°06'0 0.0
2014-Aug-24 18:31N 49°17' W 123°06'0 0.0
2014-Aug-24 17:31N 49°17' W 123°06'0 0.0
2014-Aug-24 16:33N 49°17' W 123°06'0 0.0
2014-Aug-24 15:33N 49°17' W 123°06'0 0.0
2014-Aug-24 14:33N 49°17' W 123°06'0 0.3
2014-Aug-24 13:33N 49°18' W 123°06'1110.6
2014-Aug-24 12:33N 49°19' W 123°23'1414.2
2014-Aug-24 11:33N 49°19' W 123°45'1918.9
2014-Aug-24 10:32N 49°24' W 124°13'1918.5
2014-Aug-24 09:30N 49°35' W 124°37'1918.9
2014-Aug-24 08:30N 49°49' W 124°56'6111.9
2014-Aug-24 03:24N 50°29' W 126°09'1311.8
2014-Aug-24 02:16N 50°30' W 126°30'1011.4
2014-Aug-24 01:25N 50°35' W 126°43'1214.2
2014-Aug-24 00:33N 50°42' W 126°58'1414.3
2014-Aug-23 23:33N 50°48' W 127°20'1414.3
2014-Aug-23 22:33N 50°55' W 127°39'1616.4
2014-Aug-23 21:33N 51°05' W 127°60'1818.2
2014-Aug-23 20:33N 51°16' W 128°23'1918.8
2014-Aug-23 19:33N 51°34' W 128°32'16421.7
2014-Aug-23 12:00N 53°54' W 130°54'294 6.1 360 / 121021.0 15.013.314.0
2014-Aug-21 12:00N 58°18' W 134°48'19 7.8 280 / 41016.0 13.011.214.0
2014-Aug-21 09:33N 58°11' W 135°21'1616.2
2014-Aug-21 08:33N 58°18' W 135°48'1515.4
2014-Aug-21 07:33N 58°18' W 136°17'6 0.2
2014-Aug-20 07:33N 58°19' W 136°07'1818.4
2014-Aug-20 06:34N 58°14' W 135°33'44111.9
2014-Aug-18 17:33N 51°58' W 128°53'6516.3
2014-Aug-18 13:33N 51°03' W 127°56'1515.5
2014-Aug-18 12:33N 50°53' W 127°37'1818.0
2014-Aug-18 11:33N 50°46' W 127°11'1918.0
2014-Aug-18 10:29N 50°36' W 126°44'1515.4
2014-Aug-18 09:30N 50°30' W 126°23'2218.6
2014-Aug-18 08:18N 50°23' W 125°49'4511.9
2014-Aug-18 04:31N 49°51' W 124°60'2019.0
2014-Aug-18 03:28N 49°37' W 124°39'1718.8
2014-Aug-18 02:33N 49°26' W 124°18'1818.2
2014-Aug-18 01:33N 49°22' W 123°51'1818.3
2014-Aug-18 00:33N 49°19' W 123°23'11 1.9
2014-Aug-17 18:31N 49°17' W 123°06'0 0.0
2014-Aug-17 17:33N 49°17' W 123°06'0 0.0
2014-Aug-17 16:33N 49°17' W 123°06'0 0.0
2014-Aug-17 15:33N 49°17' W 123°06'0 0.0
2014-Aug-17 14:32N 49°17' W 123°06'0 0.3
2014-Aug-17 13:34N 49°18' W 123°06'9 8.7
2014-Aug-17 12:33N 49°18' W 123°20'1212.3
2014-Aug-17 11:34N 49°18' W 123°38'1111.4
2014-Aug-17 10:33N 49°20' W 123°56'1312.6
2014-Aug-17 09:33N 49°24' W 124°14'1912.9
2014-Aug-17 08:07N 49°35' W 124°37'1114.7
2014-Aug-17 07:20N 49°44' W 124°48'7812.9
2014-Aug-17 01:17N 50°30' W 126°27'1013.3
2014-Aug-17 00:33N 50°33' W 126°41'1616.3
2014-Aug-16 23:32N 50°43' W 127°02'1818.7
2014-Aug-16 22:33N 50°50' W 127°29'1918.6
2014-Aug-16 21:32N 51°02' W 127°53'2618.4
2014-Aug-16 20:07N 51°19' W 128°24'3018.5
2014-Aug-16 18:31N 51°48' W 128°36'  
Track history (hours):
 
Tides and Currents Weather Stations Pressure Air Temp Water Temp Dewpoint Dewpoint Depression Visibility Wind Speed Wind Dir Waves Ship Positions

Celebrity Century

Last reported at 2014-Aug-25 14:03 UTC. Time now 2014-Aug-27 15:09 UTC.
Position N 51°09' W 128°05'.

Length 250 m; draft 8.1 m.

Type: Ship. MMSI: 249054000.

Date/timePositionNaut miles runAvg speedWind from/ knotsBaromVisibWave heightAir tempDewpointWater temp
2014-Aug-25 14:03N 51°09' W 128°05'815.4
2014-Aug-25 13:34N 51°04' W 127°55'1514.5
2014-Aug-25 12:33N 50°54' W 127°38'1919.3
2014-Aug-25 11:34N 50°45' W 127°11'1818.2
2014-Aug-25 10:33N 50°37' W 126°45'1514.5
2014-Aug-25 09:32N 50°30' W 126°25'7414.6
2014-Aug-25 04:27N 49°46' W 124°52'1415.3
2014-Aug-25 03:33N 49°36' W 124°38'1616.2
2014-Aug-25 02:33N 49°26' W 124°19'1616.5
2014-Aug-25 01:33N 49°20' W 123°55'1616.0
2014-Aug-25 00:34N 49°19' W 123°30'1514.9
2014-Aug-24 23:34N 49°19' W 123°08'1 1.4
2014-Aug-24 22:33N 49°17' W 123°06'0 0.0
2014-Aug-24 21:33N 49°17' W 123°06'0 0.0
2014-Aug-24 20:32N 49°17' W 123°06'0 0.0
2014-Aug-24 19:32N 49°17' W 123°06'0 0.0
2014-Aug-24 18:31N 49°17' W 123°06'0 0.0
2014-Aug-24 17:31N 49°17' W 123°06'0 0.0
2014-Aug-24 16:33N 49°17' W 123°06'0 0.0
2014-Aug-24 15:33N 49°17' W 123°06'0 0.0
2014-Aug-24 14:33N 49°17' W 123°06'0 0.3
2014-Aug-24 13:33N 49°18' W 123°06'1110.6
2014-Aug-24 12:33N 49°19' W 123°23'1414.2
2014-Aug-24 11:33N 49°19' W 123°45'1918.9
2014-Aug-24 10:32N 49°24' W 124°13'1918.5
2014-Aug-24 09:30N 49°35' W 124°37'1918.9
2014-Aug-24 08:30N 49°49' W 124°56'6111.9
2014-Aug-24 03:24N 50°29' W 126°09'1311.8
2014-Aug-24 02:16N 50°30' W 126°30'1011.4
2014-Aug-24 01:25N 50°35' W 126°43'1214.2
2014-Aug-24 00:33N 50°42' W 126°58'1414.3
2014-Aug-23 23:33N 50°48' W 127°20'1414.3
2014-Aug-23 22:33N 50°55' W 127°39'1616.4
2014-Aug-23 21:33N 51°05' W 127°60'1818.2
2014-Aug-23 20:33N 51°16' W 128°23'1918.8
2014-Aug-23 19:33N 51°34' W 128°32'16421.7
2014-Aug-23 12:00N 53°54' W 130°54'294 6.1 360 / 121021.0 15.013.314.0
2014-Aug-21 12:00N 58°18' W 134°48'19 7.8 280 / 41016.0 13.011.214.0
2014-Aug-21 09:33N 58°11' W 135°21'1616.2
2014-Aug-21 08:33N 58°18' W 135°48'1515.4
2014-Aug-21 07:33N 58°18' W 136°17'6 0.2
2014-Aug-20 07:33N 58°19' W 136°07'1818.4
2014-Aug-20 06:34N 58°14' W 135°33'44111.9
2014-Aug-18 17:33N 51°58' W 128°53'6516.3
2014-Aug-18 13:33N 51°03' W 127°56'1515.5
2014-Aug-18 12:33N 50°53' W 127°37'1818.0
2014-Aug-18 11:33N 50°46' W 127°11'1918.0
2014-Aug-18 10:29N 50°36' W 126°44'1515.4
2014-Aug-18 09:30N 50°30' W 126°23'2218.6
2014-Aug-18 08:18N 50°23' W 125°49'4511.9
2014-Aug-18 04:31N 49°51' W 124°60'2019.0
2014-Aug-18 03:28N 49°37' W 124°39'1718.8
2014-Aug-18 02:33N 49°26' W 124°18'1818.2
2014-Aug-18 01:33N 49°22' W 123°51'1818.3
2014-Aug-18 00:33N 49°19' W 123°23'11 1.9
2014-Aug-17 18:31N 49°17' W 123°06'0 0.0
2014-Aug-17 17:33N 49°17' W 123°06'0 0.0
2014-Aug-17 16:33N 49°17' W 123°06'0 0.0
2014-Aug-17 15:33N 49°17' W 123°06'0 0.0
2014-Aug-17 14:32N 49°17' W 123°06'0 0.3
2014-Aug-17 13:34N 49°18' W 123°06'9 8.7
2014-Aug-17 12:33N 49°18' W 123°20'1212.3
2014-Aug-17 11:34N 49°18' W 123°38'1111.4
2014-Aug-17 10:33N 49°20' W 123°56'1312.6
2014-Aug-17 09:33N 49°24' W 124°14'1912.9
2014-Aug-17 08:07N 49°35' W 124°37'1114.7
2014-Aug-17 07:20N 49°44' W 124°48'7812.9
2014-Aug-17 01:17N 50°30' W 126°27'1013.3
2014-Aug-17 00:33N 50°33' W 126°41'1616.3
2014-Aug-16 23:32N 50°43' W 127°02'1818.7
2014-Aug-16 22:33N 50°50' W 127°29'1918.6
2014-Aug-16 21:32N 51°02' W 127°53'2618.4
2014-Aug-16 20:07N 51°19' W 128°24'3018.5
2014-Aug-16 18:31N 51°48' W 128°36'  

Dump ship's entire track history